sensor_id;sensor_type;location;lat;lon;timestamp;P1;durP1;ratioP1;P2;durP2;ratioP2
18407;SDS011;9330;52.210;21.174;2023-04-15T00:01:30;10.05;;;7.53;;
18407;SDS011;9330;52.210;21.174;2023-04-15T00:03:58;7.82;;;7.03;;
18407;SDS011;9330;52.210;21.174;2023-04-15T00:06:25;9.02;;;6.88;;
18407;SDS011;9330;52.210;21.174;2023-04-15T00:08:52;8.10;;;7.30;;
18407;SDS011;9330;52.210;21.174;2023-04-15T00:11:19;7.90;;;7.07;;
18407;SDS011;9330;52.210;21.174;2023-04-15T00:13:46;7.72;;;6.90;;
18407;SDS011;9330;52.210;21.174;2023-04-15T00:16:14;7.72;;;6.57;;
18407;SDS011;9330;52.210;21.174;2023-04-15T00:18:41;8.30;;;7.40;;
18407;SDS011;9330;52.210;21.174;2023-04-15T00:21:08;7.93;;;6.78;;
18407;SDS011;9330;52.210;21.174;2023-04-15T00:23:35;8.35;;;6.55;;
18407;SDS011;9330;52.210;21.174;2023-04-15T00:26:02;7.55;;;6.78;;
18407;SDS011;9330;52.210;21.174;2023-04-15T00:28:29;10.95;;;7.78;;
18407;SDS011;9330;52.210;21.174;2023-04-15T00:30:56;7.95;;;7.07;;
18407;SDS011;9330;52.210;21.174;2023-04-15T00:33:25;8.10;;;7.28;;
18407;SDS011;9330;52.210;21.174;2023-04-15T00:35:51;7.97;;;7.13;;
18407;SDS011;9330;52.210;21.174;2023-04-15T00:38:18;8.23;;;7.40;;
18407;SDS011;9330;52.210;21.174;2023-04-15T00:40:45;9.18;;;7.70;;
18407;SDS011;9330;52.210;21.174;2023-04-15T00:43:12;8.93;;;7.38;;
18407;SDS011;9330;52.210;21.174;2023-04-15T00:45:40;8.38;;;7.57;;
18407;SDS011;9330;52.210;21.174;2023-04-15T00:48:07;9.18;;;8.10;;
18407;SDS011;9330;52.210;21.174;2023-04-15T00:50:36;7.70;;;6.90;;
18407;SDS011;9330;52.210;21.174;2023-04-15T00:53:03;8.63;;;7.32;;
18407;SDS011;9330;52.210;21.174;2023-04-15T00:55:30;9.38;;;7.93;;
18407;SDS011;9330;52.210;21.174;2023-04-15T00:57:57;8.45;;;7.63;;
18407;SDS011;9330;52.210;21.174;2023-04-15T01:00:23;8.70;;;7.85;;
18407;SDS011;9330;52.210;21.174;2023-04-15T01:02:50;8.40;;;6.72;;
18407;SDS011;9330;52.210;21.174;2023-04-15T01:05:17;8.15;;;6.95;;
18407;SDS011;9330;52.210;21.174;2023-04-15T01:07:46;9.27;;;7.57;;
18407;SDS011;9330;52.210;21.174;2023-04-15T01:10:13;8.88;;;7.13;;
18407;SDS011;9330;52.210;21.174;2023-04-15T01:12:41;9.23;;;8.00;;
18407;SDS011;9330;52.210;21.174;2023-04-15T01:15:08;8.52;;;7.63;;
18407;SDS011;9330;52.210;21.174;2023-04-15T01:17:36;9.68;;;8.02;;
18407;SDS011;9330;52.210;21.174;2023-04-15T01:20:03;8.63;;;7.60;;
18407;SDS011;9330;52.210;21.174;2023-04-15T01:22:34;9.20;;;8.30;;
18407;SDS011;9330;52.210;21.174;2023-04-15T01:25:04;10.18;;;8.50;;
18407;SDS011;9330;52.210;21.174;2023-04-15T01:27:36;10.00;;;8.48;;
18407;SDS011;9330;52.210;21.174;2023-04-15T01:30:05;10.15;;;8.10;;
18407;SDS011;9330;52.210;21.174;2023-04-15T01:32:33;9.38;;;8.38;;
18407;SDS011;9330;52.210;21.174;2023-04-15T01:35:00;9.43;;;8.43;;
18407;SDS011;9330;52.210;21.174;2023-04-15T01:37:27;10.52;;;9.20;;
18407;SDS011;9330;52.210;21.174;2023-04-15T01:39:54;10.70;;;8.05;;
18407;SDS011;9330;52.210;21.174;2023-04-15T01:42:22;9.70;;;8.63;;
18407;SDS011;9330;52.210;21.174;2023-04-15T01:44:50;9.63;;;8.65;;
18407;SDS011;9330;52.210;21.174;2023-04-15T01:47:18;9.93;;;8.32;;
18407;SDS011;9330;52.210;21.174;2023-04-15T01:49:44;10.43;;;9.32;;
18407;SDS011;9330;52.210;21.174;2023-04-15T01:52:12;10.57;;;9.43;;
18407;SDS011;9330;52.210;21.174;2023-04-15T01:54:38;11.18;;;10.00;;
18407;SDS011;9330;52.210;21.174;2023-04-15T01:57:05;11.25;;;10.15;;
18407;SDS011;9330;52.210;21.174;2023-04-15T01:59:32;11.68;;;9.75;;
18407;SDS011;9330;52.210;21.174;2023-04-15T02:02:01;11.10;;;8.77;;
18407;SDS011;9330;52.210;21.174;2023-04-15T02:04:28;9.82;;;8.82;;
18407;SDS011;9330;52.210;21.174;2023-04-15T02:06:55;11.32;;;9.82;;
18407;SDS011;9330;52.210;21.174;2023-04-15T02:09:22;12.57;;;10.10;;
18407;SDS011;9330;52.210;21.174;2023-04-15T02:11:49;11.40;;;10.25;;
18407;SDS011;9330;52.210;21.174;2023-04-15T02:14:17;11.27;;;10.07;;
18407;SDS011;9330;52.210;21.174;2023-04-15T02:16:45;12.07;;;10.88;;
18407;SDS011;9330;52.210;21.174;2023-04-15T02:19:13;12.45;;;10.93;;
18407;SDS011;9330;52.210;21.174;2023-04-15T02:21:40;12.23;;;10.93;;
18407;SDS011;9330;52.210;21.174;2023-04-15T02:24:07;11.40;;;10.07;;
18407;SDS011;9330;52.210;21.174;2023-04-15T02:26:34;11.02;;;9.93;;
18407;SDS011;9330;52.210;21.174;2023-04-15T02:29:01;10.45;;;9.35;;
18407;SDS011;9330;52.210;21.174;2023-04-15T02:31:27;10.40;;;9.30;;
18407;SDS011;9330;52.210;21.174;2023-04-15T02:33:58;10.95;;;9.85;;
18407;SDS011;9330;52.210;21.174;2023-04-15T02:36:28;12.52;;;9.85;;
18407;SDS011;9330;52.210;21.174;2023-04-15T02:38:55;12.15;;;10.65;;
18407;SDS011;9330;52.210;21.174;2023-04-15T02:41:22;11.30;;;9.88;;
18407;SDS011;9330;52.210;21.174;2023-04-15T02:43:51;10.98;;;9.82;;
18407;SDS011;9330;52.210;21.174;2023-04-15T02:46:18;12.32;;;11.02;;
18407;SDS011;9330;52.210;21.174;2023-04-15T02:48:46;11.48;;;10.07;;
18407;SDS011;9330;52.210;21.174;2023-04-15T02:51:14;12.00;;;10.70;;
18407;SDS011;9330;52.210;21.174;2023-04-15T02:53:45;12.18;;;9.95;;
18407;SDS011;9330;52.210;21.174;2023-04-15T02:56:12;11.77;;;10.57;;
18407;SDS011;9330;52.210;21.174;2023-04-15T02:58:41;11.27;;;10.07;;
18407;SDS011;9330;52.210;21.174;2023-04-15T03:01:08;11.18;;;10.00;;
18407;SDS011;9330;52.210;21.174;2023-04-15T03:03:35;12.90;;;10.77;;
18407;SDS011;9330;52.210;21.174;2023-04-15T03:06:02;11.48;;;10.27;;
18407;SDS011;9330;52.210;21.174;2023-04-15T03:08:29;11.40;;;9.35;;
18407;SDS011;9330;52.210;21.174;2023-04-15T03:10:59;11.48;;;10.25;;
18407;SDS011;9330;52.210;21.174;2023-04-15T03:13:26;11.82;;;10.65;;
18407;SDS011;9330;52.210;21.174;2023-04-15T03:15:53;11.00;;;9.90;;
18407;SDS011;9330;52.210;21.174;2023-04-15T03:18:20;10.98;;;9.65;;
18407;SDS011;9330;52.210;21.174;2023-04-15T03:20:47;11.10;;;9.93;;
18407;SDS011;9330;52.210;21.174;2023-04-15T03:23:14;11.05;;;9.95;;
18407;SDS011;9330;52.210;21.174;2023-04-15T03:25:41;10.65;;;9.30;;
18407;SDS011;9330;52.210;21.174;2023-04-15T03:28:11;11.38;;;10.27;;
18407;SDS011;9330;52.210;21.174;2023-04-15T03:30:38;11.65;;;8.90;;
18407;SDS011;9330;52.210;21.174;2023-04-15T03:33:05;12.13;;;10.55;;
18407;SDS011;9330;52.210;21.174;2023-04-15T03:35:33;10.57;;;9.48;;
18407;SDS011;9330;52.210;21.174;2023-04-15T03:38:00;11.88;;;10.65;;
18407;SDS011;9330;52.210;21.174;2023-04-15T03:40:27;11.20;;;10.10;;
18407;SDS011;9330;52.210;21.174;2023-04-15T03:42:54;12.25;;;9.82;;
18407;SDS011;9330;52.210;21.174;2023-04-15T03:45:22;11.13;;;9.75;;
18407;SDS011;9330;52.210;21.174;2023-04-15T03:47:49;10.68;;;9.57;;
18407;SDS011;9330;52.210;21.174;2023-04-15T03:50:16;11.80;;;10.60;;
18407;SDS011;9330;52.210;21.174;2023-04-15T03:52:43;12.98;;;11.32;;
18407;SDS011;9330;52.210;21.174;2023-04-15T03:55:10;10.57;;;9.55;;
18407;SDS011;9330;52.210;21.174;2023-04-15T03:57:38;11.13;;;9.93;;
18407;SDS011;9330;52.210;21.174;2023-04-15T04:00:05;11.20;;;10.07;;
18407;SDS011;9330;52.210;21.174;2023-04-15T04:02:36;10.98;;;9.88;;
18407;SDS011;9330;52.210;21.174;2023-04-15T04:05:03;10.80;;;9.70;;
18407;SDS011;9330;52.210;21.174;2023-04-15T04:07:30;11.82;;;10.60;;
18407;SDS011;9330;52.210;21.174;2023-04-15T04:09:57;12.85;;;11.55;;
18407;SDS011;9330;52.210;21.174;2023-04-15T04:12:24;10.85;;;9.75;;
18407;SDS011;9330;52.210;21.174;2023-04-15T04:14:51;12.27;;;11.05;;
18407;SDS011;9330;52.210;21.174;2023-04-15T04:17:18;11.63;;;10.27;;
18407;SDS011;9330;52.210;21.174;2023-04-15T04:19:47;10.70;;;9.02;;
18407;SDS011;9330;52.210;21.174;2023-04-15T04:22:14;11.23;;;9.98;;
18407;SDS011;9330;52.210;21.174;2023-04-15T04:24:41;12.27;;;10.55;;
18407;SDS011;9330;52.210;21.174;2023-04-15T04:27:08;11.20;;;10.05;;
18407;SDS011;9330;52.210;21.174;2023-04-15T04:29:35;12.45;;;10.43;;
18407;SDS011;9330;52.210;21.174;2023-04-15T04:32:02;13.18;;;10.85;;
18407;SDS011;9330;52.210;21.174;2023-04-15T04:34:29;10.98;;;9.88;;
18407;SDS011;9330;52.210;21.174;2023-04-15T04:36:57;13.10;;;11.65;;
18407;SDS011;9330;52.210;21.174;2023-04-15T04:39:24;12.93;;;11.52;;
18407;SDS011;9330;52.210;21.174;2023-04-15T04:41:51;11.63;;;10.43;;
18407;SDS011;9330;52.210;21.174;2023-04-15T04:44:18;13.73;;;12.25;;
18407;SDS011;9330;52.210;21.174;2023-04-15T04:46:46;12.75;;;11.10;;
18407;SDS011;9330;52.210;21.174;2023-04-15T04:49:13;13.60;;;11.10;;
18407;SDS011;9330;52.210;21.174;2023-04-15T04:51:40;11.63;;;10.23;;
18407;SDS011;9330;52.210;21.174;2023-04-15T04:54:08;11.75;;;10.10;;
18407;SDS011;9330;52.210;21.174;2023-04-15T04:56:35;11.68;;;10.45;;
18407;SDS011;9330;52.210;21.174;2023-04-15T04:59:03;11.60;;;10.38;;
18407;SDS011;9330;52.210;21.174;2023-04-15T05:01:31;15.00;;;11.38;;
18407;SDS011;9330;52.210;21.174;2023-04-15T05:03:58;12.43;;;10.60;;
18407;SDS011;9330;52.210;21.174;2023-04-15T05:06:25;12.50;;;10.10;;
18407;SDS011;9330;52.210;21.174;2023-04-15T05:08:54;12.77;;;10.25;;
18407;SDS011;9330;52.210;21.174;2023-04-15T05:11:23;11.57;;;10.18;;
18407;SDS011;9330;52.210;21.174;2023-04-15T05:13:50;12.85;;;11.48;;
18407;SDS011;9330;52.210;21.174;2023-04-15T05:16:16;11.93;;;10.73;;
18407;SDS011;9330;52.210;21.174;2023-04-15T05:18:44;11.70;;;10.18;;
18407;SDS011;9330;52.210;21.174;2023-04-15T05:21:11;13.27;;;11.25;;
18407;SDS011;9330;52.210;21.174;2023-04-15T05:23:38;12.23;;;10.40;;
18407;SDS011;9330;52.210;21.174;2023-04-15T05:26:05;12.32;;;11.05;;
18407;SDS011;9330;52.210;21.174;2023-04-15T05:28:35;13.55;;;10.90;;
18407;SDS011;9330;52.210;21.174;2023-04-15T05:31:02;14.57;;;12.00;;
18407;SDS011;9330;52.210;21.174;2023-04-15T05:33:30;11.25;;;10.15;;
18407;SDS011;9330;52.210;21.174;2023-04-15T05:35:56;11.15;;;10.05;;
18407;SDS011;9330;52.210;21.174;2023-04-15T05:38:23;10.23;;;9.13;;
18407;SDS011;9330;52.210;21.174;2023-04-15T05:40:51;11.05;;;9.77;;
18407;SDS011;9330;52.210;21.174;2023-04-15T05:43:18;11.55;;;10.40;;
18407;SDS011;9330;52.210;21.174;2023-04-15T05:45:46;11.07;;;9.65;;
18407;SDS011;9330;52.210;21.174;2023-04-15T05:48:13;9.05;;;8.15;;
18407;SDS011;9330;52.210;21.174;2023-04-15T05:50:40;10.15;;;8.32;;
18407;SDS011;9330;52.210;21.174;2023-04-15T05:53:07;11.00;;;9.90;;
18407;SDS011;9330;52.210;21.174;2023-04-15T05:55:34;10.75;;;9.57;;
18407;SDS011;9330;52.210;21.174;2023-04-15T05:58:01;11.23;;;10.05;;
18407;SDS011;9330;52.210;21.174;2023-04-15T06:00:28;11.85;;;9.18;;
18407;SDS011;9330;52.210;21.174;2023-04-15T06:02:57;10.27;;;9.18;;
18407;SDS011;9330;52.210;21.174;2023-04-15T06:05:25;10.20;;;9.13;;
18407;SDS011;9330;52.210;21.174;2023-04-15T06:07:51;9.50;;;8.48;;
18407;SDS011;9330;52.210;21.174;2023-04-15T06:10:18;10.07;;;9.07;;
18407;SDS011;9330;52.210;21.174;2023-04-15T06:12:45;9.75;;;8.77;;
18407;SDS011;9330;52.210;21.174;2023-04-15T06:15:12;10.25;;;9.07;;
18407;SDS011;9330;52.210;21.174;2023-04-15T06:17:39;10.60;;;9.50;;
18407;SDS011;9330;52.210;21.174;2023-04-15T06:20:08;11.02;;;9.30;;
18407;SDS011;9330;52.210;21.174;2023-04-15T06:22:36;10.30;;;8.13;;
18407;SDS011;9330;52.210;21.174;2023-04-15T06:25:03;10.25;;;9.25;;
18407;SDS011;9330;52.210;21.174;2023-04-15T06:27:32;10.57;;;9.45;;
18407;SDS011;9330;52.210;21.174;2023-04-15T06:29:59;10.10;;;9.10;;
18407;SDS011;9330;52.210;21.174;2023-04-15T06:32:26;10.98;;;9.88;;
18407;SDS011;9330;52.210;21.174;2023-04-15T06:34:53;8.68;;;7.78;;
18407;SDS011;9330;52.210;21.174;2023-04-15T06:37:21;11.68;;;8.77;;
18407;SDS011;9330;52.210;21.174;2023-04-15T06:39:48;13.60;;;10.07;;
18407;SDS011;9330;52.210;21.174;2023-04-15T06:42:15;10.85;;;9.13;;
18407;SDS011;9330;52.210;21.174;2023-04-15T06:44:43;9.38;;;8.27;;
18407;SDS011;9330;52.210;21.174;2023-04-15T06:47:09;9.88;;;8.88;;
18407;SDS011;9330;52.210;21.174;2023-04-15T06:49:38;8.38;;;7.53;;
18407;SDS011;9330;52.210;21.174;2023-04-15T06:52:05;9.80;;;8.80;;
18407;SDS011;9330;52.210;21.174;2023-04-15T06:54:33;8.70;;;7.88;;
18407;SDS011;9330;52.210;21.174;2023-04-15T06:57:01;8.65;;;7.75;;
18407;SDS011;9330;52.210;21.174;2023-04-15T06:59:27;10.27;;;9.25;;
18407;SDS011;9330;52.210;21.174;2023-04-15T07:01:54;9.40;;;8.50;;
18407;SDS011;9330;52.210;21.174;2023-04-15T07:04:21;8.70;;;7.80;;
18407;SDS011;9330;52.210;21.174;2023-04-15T07:06:48;10.48;;;8.25;;
18407;SDS011;9330;52.210;21.174;2023-04-15T07:09:15;8.68;;;7.55;;
18407;SDS011;9330;52.210;21.174;2023-04-15T07:11:43;8.73;;;7.82;;
18407;SDS011;9330;52.210;21.174;2023-04-15T07:14:10;8.27;;;7.45;;
18407;SDS011;9330;52.210;21.174;2023-04-15T07:16:37;8.30;;;7.28;;
18407;SDS011;9330;52.210;21.174;2023-04-15T07:19:04;8.23;;;7.30;;
18407;SDS011;9330;52.210;21.174;2023-04-15T07:21:31;9.98;;;8.00;;
18407;SDS011;9330;52.210;21.174;2023-04-15T07:23:58;7.72;;;6.93;;
18407;SDS011;9330;52.210;21.174;2023-04-15T07:26:25;7.63;;;6.90;;
18407;SDS011;9330;52.210;21.174;2023-04-15T07:28:54;8.00;;;7.20;;
18407;SDS011;9330;52.210;21.174;2023-04-15T07:31:20;8.77;;;7.05;;
18407;SDS011;9330;52.210;21.174;2023-04-15T07:33:47;6.65;;;5.95;;
18407;SDS011;9330;52.210;21.174;2023-04-15T07:36:15;6.70;;;5.72;;
18407;SDS011;9330;52.210;21.174;2023-04-15T07:38:42;8.30;;;6.53;;
18407;SDS011;9330;52.210;21.174;2023-04-15T07:41:09;7.00;;;6.30;;
18407;SDS011;9330;52.210;21.174;2023-04-15T07:43:37;6.20;;;5.60;;
18407;SDS011;9330;52.210;21.174;2023-04-15T07:46:05;6.90;;;6.30;;
18407;SDS011;9330;52.210;21.174;2023-04-15T07:48:32;6.05;;;5.43;;
18407;SDS011;9330;52.210;21.174;2023-04-15T07:50:59;7.50;;;6.55;;
18407;SDS011;9330;52.210;21.174;2023-04-15T07:53:26;7.03;;;6.32;;
18407;SDS011;9330;52.210;21.174;2023-04-15T07:55:54;6.18;;;5.15;;
18407;SDS011;9330;52.210;21.174;2023-04-15T07:58:21;5.68;;;5.00;;
18407;SDS011;9330;52.210;21.174;2023-04-15T08:00:48;5.82;;;5.18;;
18407;SDS011;9330;52.210;21.174;2023-04-15T08:03:17;5.05;;;4.55;;
18407;SDS011;9330;52.210;21.174;2023-04-15T08:05:43;5.07;;;4.57;;
18407;SDS011;9330;52.210;21.174;2023-04-15T08:08:11;5.63;;;5.00;;
18407;SDS011;9330;52.210;21.174;2023-04-15T08:10:38;5.78;;;5.00;;
18407;SDS011;9330;52.210;21.174;2023-04-15T08:13:05;6.53;;;5.32;;
18407;SDS011;9330;52.210;21.174;2023-04-15T08:15:31;5.38;;;4.72;;
18407;SDS011;9330;52.210;21.174;2023-04-15T08:17:58;4.75;;;4.25;;
18407;SDS011;9330;52.210;21.174;2023-04-15T08:20:27;6.97;;;5.40;;
18407;SDS011;9330;52.210;21.174;2023-04-15T08:22:54;5.03;;;4.53;;
18407;SDS011;9330;52.210;21.174;2023-04-15T08:25:21;4.57;;;4.18;;
18407;SDS011;9330;52.210;21.174;2023-04-15T08:27:48;4.55;;;4.07;;
18407;SDS011;9330;52.210;21.174;2023-04-15T08:30:15;4.38;;;3.95;;
18407;SDS011;9330;52.210;21.174;2023-04-15T08:32:42;4.53;;;4.07;;
18407;SDS011;9330;52.210;21.174;2023-04-15T08:35:11;4.55;;;4.15;;
18407;SDS011;9330;52.210;21.174;2023-04-15T08:37:40;4.25;;;3.85;;
18407;SDS011;9330;52.210;21.174;2023-04-15T08:40:07;5.32;;;4.40;;
18407;SDS011;9330;52.210;21.174;2023-04-15T08:42:36;4.43;;;3.58;;
18407;SDS011;9330;52.210;21.174;2023-04-15T08:45:07;4.40;;;4.00;;
18407;SDS011;9330;52.210;21.174;2023-04-15T08:47:35;4.05;;;3.72;;
18407;SDS011;9330;52.210;21.174;2023-04-15T08:50:04;4.18;;;3.78;;
18407;SDS011;9330;52.210;21.174;2023-04-15T08:52:33;3.97;;;3.58;;
18407;SDS011;9330;52.210;21.174;2023-04-15T08:55:02;4.25;;;3.85;;
18407;SDS011;9330;52.210;21.174;2023-04-15T08:57:30;6.20;;;4.22;;
18407;SDS011;9330;52.210;21.174;2023-04-15T08:59:59;4.30;;;3.90;;
18407;SDS011;9330;52.210;21.174;2023-04-15T09:02:28;3.78;;;3.10;;
18407;SDS011;9330;52.210;21.174;2023-04-15T09:04:55;4.15;;;3.75;;
18407;SDS011;9330;52.210;21.174;2023-04-15T09:07:22;5.40;;;4.00;;
18407;SDS011;9330;52.210;21.174;2023-04-15T09:09:49;4.03;;;3.63;;
18407;SDS011;9330;52.210;21.174;2023-04-15T09:12:17;3.65;;;3.25;;
18407;SDS011;9330;52.210;21.174;2023-04-15T09:14:44;4.20;;;3.80;;
18407;SDS011;9330;52.210;21.174;2023-04-15T09:17:12;3.63;;;3.33;;
18407;SDS011;9330;52.210;21.174;2023-04-15T09:19:43;3.78;;;3.10;;
18407;SDS011;9330;52.210;21.174;2023-04-15T09:22:10;3.38;;;3.08;;
18407;SDS011;9330;52.210;21.174;2023-04-15T09:24:38;4.22;;;3.83;;
18407;SDS011;9330;52.210;21.174;2023-04-15T09:27:07;3.65;;;3.05;;
18407;SDS011;9330;52.210;21.174;2023-04-15T09:29:36;4.05;;;2.88;;
18407;SDS011;9330;52.210;21.174;2023-04-15T09:32:10;4.47;;;4.07;;
18407;SDS011;9330;52.210;21.174;2023-04-15T09:34:38;3.85;;;3.42;;
18407;SDS011;9330;52.210;21.174;2023-04-15T09:37:05;3.90;;;3.50;;
18407;SDS011;9330;52.210;21.174;2023-04-15T09:39:44;3.80;;;3.40;;
18407;SDS011;9330;52.210;21.174;2023-04-15T09:42:12;6.22;;;2.75;;
18407;SDS011;9330;52.210;21.174;2023-04-15T09:44:41;4.45;;;3.05;;
18407;SDS011;9330;52.210;21.174;2023-04-15T09:47:08;3.42;;;3.13;;
18407;SDS011;9330;52.210;21.174;2023-04-15T09:49:35;3.50;;;3.00;;
18407;SDS011;9330;52.210;21.174;2023-04-15T09:52:02;2.92;;;2.63;;
18407;SDS011;9330;52.210;21.174;2023-04-15T09:54:33;3.28;;;2.97;;
18407;SDS011;9330;52.210;21.174;2023-04-15T09:57:04;3.65;;;3.35;;
18407;SDS011;9330;52.210;21.174;2023-04-15T09:59:32;4.00;;;3.50;;
18407;SDS011;9330;52.210;21.174;2023-04-15T10:02:01;3.35;;;3.05;;
18407;SDS011;9330;52.210;21.174;2023-04-15T10:04:31;2.80;;;2.53;;
18407;SDS011;9330;52.210;21.174;2023-04-15T10:07:02;3.38;;;2.80;;
18407;SDS011;9330;52.210;21.174;2023-04-15T10:09:30;3.10;;;2.80;;
18407;SDS011;9330;52.210;21.174;2023-04-15T10:11:58;2.90;;;2.70;;
18407;SDS011;9330;52.210;21.174;2023-04-15T10:14:26;3.40;;;2.70;;
18407;SDS011;9330;52.210;21.174;2023-04-15T10:16:57;2.95;;;2.65;;
18407;SDS011;9330;52.210;21.174;2023-04-15T10:19:30;3.92;;;3.28;;
18407;SDS011;9330;52.210;21.174;2023-04-15T10:21:58;3.28;;;2.72;;
18407;SDS011;9330;52.210;21.174;2023-04-15T10:24:26;2.83;;;2.10;;
18407;SDS011;9330;52.210;21.174;2023-04-15T10:26:53;2.90;;;2.60;;
18407;SDS011;9330;52.210;21.174;2023-04-15T10:29:22;3.10;;;2.80;;
18407;SDS011;9330;52.210;21.174;2023-04-15T10:31:50;3.20;;;2.90;;
18407;SDS011;9330;52.210;21.174;2023-04-15T10:34:20;3.60;;;2.75;;
18407;SDS011;9330;52.210;21.174;2023-04-15T10:36:48;3.10;;;2.80;;
18407;SDS011;9330;52.210;21.174;2023-04-15T10:42:09;3.10;;;2.42;;
18407;SDS011;9330;52.210;21.174;2023-04-15T10:44:37;3.22;;;2.88;;
18407;SDS011;9330;52.210;21.174;2023-04-15T10:47:10;3.03;;;2.55;;
18407;SDS011;9330;52.210;21.174;2023-04-15T10:49:43;3.67;;;2.47;;
18407;SDS011;9330;52.210;21.174;2023-04-15T10:52:12;2.67;;;2.42;;
18407;SDS011;9330;52.210;21.174;2023-04-15T10:54:40;2.85;;;2.60;;
18407;SDS011;9330;52.210;21.174;2023-04-15T10:57:08;3.60;;;2.80;;
18407;SDS011;9330;52.210;21.174;2023-04-15T11:02:37;4.60;;;2.45;;
18407;SDS011;9330;52.210;21.174;2023-04-15T11:05:09;3.35;;;2.70;;
18407;SDS011;9330;52.210;21.174;2023-04-15T11:07:37;5.55;;;2.53;;
18407;SDS011;9330;52.210;21.174;2023-04-15T11:13:26;2.90;;;2.20;;
18407;SDS011;9330;52.210;21.174;2023-04-15T11:15:56;2.15;;;1.90;;
18407;SDS011;9330;52.210;21.174;2023-04-15T11:18:25;2.58;;;2.38;;
18407;SDS011;9330;52.210;21.174;2023-04-15T11:20:56;2.60;;;2.03;;
18407;SDS011;9330;52.210;21.174;2023-04-15T11:23:35;2.63;;;2.20;;
18407;SDS011;9330;52.210;21.174;2023-04-15T11:26:04;3.22;;;2.58;;
18407;SDS011;9330;52.210;21.174;2023-04-15T11:28:33;2.42;;;2.00;;
18407;SDS011;9330;52.210;21.174;2023-04-15T11:31:07;3.03;;;2.50;;
18407;SDS011;9330;52.210;21.174;2023-04-15T11:33:35;2.50;;;2.30;;
18407;SDS011;9330;52.210;21.174;2023-04-15T11:36:06;2.92;;;2.10;;
18407;SDS011;9330;52.210;21.174;2023-04-15T11:38:33;4.05;;;1.98;;
18407;SDS011;9330;52.210;21.174;2023-04-15T11:41:01;3.78;;;3.33;;
18407;SDS011;9330;52.210;21.174;2023-04-15T11:43:30;3.15;;;2.80;;
18407;SDS011;9330;52.210;21.174;2023-04-15T11:45:59;2.30;;;2.10;;
18407;SDS011;9330;52.210;21.174;2023-04-15T11:48:28;3.70;;;2.35;;
18407;SDS011;9330;52.210;21.174;2023-04-15T11:50:57;3.60;;;2.50;;
18407;SDS011;9330;52.210;21.174;2023-04-15T11:53:36;2.90;;;2.45;;
18407;SDS011;9330;52.210;21.174;2023-04-15T11:56:05;3.78;;;2.85;;
18407;SDS011;9330;52.210;21.174;2023-04-15T11:58:33;3.33;;;3.03;;
18407;SDS011;9330;52.210;21.174;2023-04-15T12:01:01;2.50;;;2.30;;
18407;SDS011;9330;52.210;21.174;2023-04-15T12:03:28;2.88;;;2.58;;
18407;SDS011;9330;52.210;21.174;2023-04-15T12:06:06;2.40;;;2.20;;
18407;SDS011;9330;52.210;21.174;2023-04-15T12:11:33;3.10;;;2.40;;
18407;SDS011;9330;52.210;21.174;2023-04-15T12:14:02;2.65;;;2.40;;
18407;SDS011;9330;52.210;21.174;2023-04-15T12:16:32;3.80;;;2.85;;
18407;SDS011;9330;52.210;21.174;2023-04-15T12:19:01;3.58;;;3.08;;
18407;SDS011;9330;52.210;21.174;2023-04-15T12:21:32;4.03;;;2.47;;
18407;SDS011;9330;52.210;21.174;2023-04-15T12:24:02;2.92;;;2.50;;
18407;SDS011;9330;52.210;21.174;2023-04-15T12:26:32;3.42;;;2.88;;
18407;SDS011;9330;52.210;21.174;2023-04-15T12:29:01;3.53;;;2.97;;
18407;SDS011;9330;52.210;21.174;2023-04-15T12:31:29;3.60;;;2.40;;
18407;SDS011;9330;52.210;21.174;2023-04-15T12:33:56;2.60;;;2.22;;
18407;SDS011;9330;52.210;21.174;2023-04-15T12:36:23;3.28;;;2.35;;
18407;SDS011;9330;52.210;21.174;2023-04-15T12:38:50;4.45;;;2.25;;
18407;SDS011;9330;52.210;21.174;2023-04-15T12:41:19;3.38;;;2.42;;
18407;SDS011;9330;52.210;21.174;2023-04-15T12:43:46;3.45;;;3.15;;
18407;SDS011;9330;52.210;21.174;2023-04-15T12:46:13;3.53;;;2.55;;
18407;SDS011;9330;52.210;21.174;2023-04-15T12:48:40;5.50;;;5.00;;
18407;SDS011;9330;52.210;21.174;2023-04-15T12:51:07;4.28;;;3.47;;
18407;SDS011;9330;52.210;21.174;2023-04-15T12:53:34;3.33;;;2.97;;
18407;SDS011;9330;52.210;21.174;2023-04-15T12:56:01;3.10;;;2.80;;
18407;SDS011;9330;52.210;21.174;2023-04-15T12:58:30;2.67;;;2.40;;
18407;SDS011;9330;52.210;21.174;2023-04-15T13:00:57;3.00;;;2.70;;
18407;SDS011;9330;52.210;21.174;2023-04-15T13:03:24;3.50;;;2.72;;
18407;SDS011;9330;52.210;21.174;2023-04-15T13:05:51;3.65;;;2.80;;
18407;SDS011;9330;52.210;21.174;2023-04-15T13:08:18;2.90;;;2.60;;
18407;SDS011;9330;52.210;21.174;2023-04-15T13:10:45;3.20;;;2.15;;
18407;SDS011;9330;52.210;21.174;2023-04-15T13:13:11;4.25;;;2.85;;
18407;SDS011;9330;52.210;21.174;2023-04-15T13:15:40;3.80;;;3.13;;
18407;SDS011;9330;52.210;21.174;2023-04-15T13:18:09;3.03;;;2.72;;
18407;SDS011;9330;52.210;21.174;2023-04-15T13:20:37;3.58;;;2.47;;
18407;SDS011;9330;52.210;21.174;2023-04-15T13:23:04;2.65;;;2.10;;
18407;SDS011;9330;52.210;21.174;2023-04-15T13:25:30;3.53;;;2.95;;
18407;SDS011;9330;52.210;21.174;2023-04-15T13:27:57;3.30;;;2.10;;
18407;SDS011;9330;52.210;21.174;2023-04-15T13:30:25;3.72;;;2.00;;
18407;SDS011;9330;52.210;21.174;2023-04-15T13:32:53;2.90;;;2.60;;
18407;SDS011;9330;52.210;21.174;2023-04-15T13:35:20;2.17;;;1.73;;
18407;SDS011;9330;52.210;21.174;2023-04-15T13:37:47;2.78;;;1.60;;
18407;SDS011;9330;52.210;21.174;2023-04-15T13:40:14;2.83;;;2.00;;
18407;SDS011;9330;52.210;21.174;2023-04-15T13:42:41;2.85;;;1.80;;
18407;SDS011;9330;52.210;21.174;2023-04-15T13:45:08;3.80;;;1.75;;
18407;SDS011;9330;52.210;21.174;2023-04-15T13:47:36;2.13;;;1.70;;
18407;SDS011;9330;52.210;21.174;2023-04-15T13:50:04;2.90;;;1.92;;
18407;SDS011;9330;52.210;21.174;2023-04-15T13:52:32;2.40;;;2.10;;
18407;SDS011;9330;52.210;21.174;2023-04-15T13:54:59;2.35;;;1.88;;
18407;SDS011;9330;52.210;21.174;2023-04-15T13:57:25;2.53;;;2.25;;
18407;SDS011;9330;52.210;21.174;2023-04-15T13:59:52;2.53;;;1.95;;
18407;SDS011;9330;52.210;21.174;2023-04-15T14:02:20;3.90;;;2.45;;
18407;SDS011;9330;52.210;21.174;2023-04-15T14:04:47;2.92;;;2.17;;
18407;SDS011;9330;52.210;21.174;2023-04-15T14:07:15;2.47;;;1.90;;
18407;SDS011;9330;52.210;21.174;2023-04-15T14:09:42;2.15;;;1.95;;
18407;SDS011;9330;52.210;21.174;2023-04-15T14:12:09;1.95;;;1.80;;
18407;SDS011;9330;52.210;21.174;2023-04-15T14:14:36;1.77;;;1.67;;
18407;SDS011;9330;52.210;21.174;2023-04-15T14:17:03;1.55;;;1.45;;
18407;SDS011;9330;52.210;21.174;2023-04-15T14:19:30;2.03;;;1.52;;
18407;SDS011;9330;52.210;21.174;2023-04-15T14:21:57;2.03;;;1.40;;
18407;SDS011;9330;52.210;21.174;2023-04-15T14:24:25;2.60;;;2.28;;
18407;SDS011;9330;52.210;21.174;2023-04-15T14:26:52;1.50;;;1.23;;
18407;SDS011;9330;52.210;21.174;2023-04-15T14:29:20;1.60;;;1.40;;
18407;SDS011;9330;52.210;21.174;2023-04-15T14:31:47;1.70;;;1.20;;
18407;SDS011;9330;52.210;21.174;2023-04-15T14:34:15;1.63;;;1.52;;
18407;SDS011;9330;52.210;21.174;2023-04-15T14:36:42;1.60;;;1.50;;
18407;SDS011;9330;52.210;21.174;2023-04-15T14:39:09;1.50;;;1.40;;
18407;SDS011;9330;52.210;21.174;2023-04-15T14:41:38;1.50;;;1.30;;
18407;SDS011;9330;52.210;21.174;2023-04-15T14:44:05;1.85;;;1.48;;
18407;SDS011;9330;52.210;21.174;2023-04-15T14:46:33;1.67;;;1.42;;
18407;SDS011;9330;52.210;21.174;2023-04-15T14:49:00;1.85;;;1.15;;
18407;SDS011;9330;52.210;21.174;2023-04-15T14:51:27;1.88;;;1.67;;
18407;SDS011;9330;52.210;21.174;2023-04-15T14:53:55;1.58;;;1.40;;
18407;SDS011;9330;52.210;21.174;2023-04-15T14:56:22;2.00;;;1.42;;